Time;durP1;ratioP1;P1;durP2;ratioP2;P2;SDS_P1;SDS_P2;PMS_P1;PMS_P2;Temp;Humidity;BMP_temperature;BMP_pressure;BME280_temperature;BME280_humidity;BME280_pressure;Samples;Min_cycle;Max_cycle;Signal;HPM_P1;HPM_P2
2021/08/04 00:01:59;;;;;;;16.30;8.60;;;;;;;19.33;72.31;100587.23;125199;1099;104153;-78
2021/08/04 00:04:31;;;;;;;14.83;7.47;;;;;;;19.30;72.41;100592.55;125178;1099;104226;-78
2021/08/04 00:07:02;;;;;;;17.43;7.97;;;;;;;19.28;72.79;100592.55;125247;1099;104146;-79
2021/08/04 00:09:32;;;;;;;18.37;7.43;;;;;;;19.25;72.70;100589.88;125144;1102;104204;-78
2021/08/04 00:12:04;;;;;;;17.37;7.10;;;;;;;19.24;73.10;100589.87;125228;1102;104242;-79
2021/08/04 00:14:35;;;;;;;15.50;7.30;;;;;;;19.22;72.57;100593.41;125279;1099;104236;-79
2021/08/04 00:17:07;;;;;;;15.40;7.30;;;;;;;19.25;73.30;100594.33;125224;1099;104395;-80
2021/08/04 00:19:40;;;;;;;14.85;7.45;;;;;;;19.30;73.19;100603.19;125293;1099;104249;-79
2021/08/04 00:22:10;;;;;;;14.83;7.27;;;;;;;19.32;72.89;100591.68;126311;1099;104181;-79
2021/08/04 00:24:43;;;;;;;15.90;7.70;;;;;;;19.34;72.97;100592.56;126335;1099;104185;-78
2021/08/04 00:27:13;;;;;;;17.97;7.73;;;;;;;19.37;73.26;100589.02;125443;1099;104162;-79
2021/08/04 00:29:45;;;;;;;16.93;7.50;;;;;;;19.45;73.22;100589.91;126153;1099;104213;-78
2021/08/04 00:32:16;;;;;;;17.60;7.07;;;;;;;19.46;73.50;100596.11;125283;1099;104156;-80
2021/08/04 00:34:48;;;;;;;16.23;7.33;;;;;;;19.50;73.56;100587.25;125411;1099;104162;-78
2021/08/04 00:37:20;;;;;;;14.80;6.80;;;;;;;19.47;73.43;100593.45;125356;1102;104146;-80
2021/08/04 00:39:51;;;;;;;18.33;7.03;;;;;;;19.43;73.68;100593.44;126316;1097;104145;-78
2021/08/04 00:42:23;;;;;;;16.17;7.37;;;;;;;19.40;73.94;100594.34;126310;1099;108168;-80
2021/08/04 00:44:54;;;;;;;19.03;7.10;;;;;;;19.37;73.96;100595.22;126340;1099;104781;-78
2021/08/04 00:47:27;;;;;;;16.10;7.90;;;;;;;19.35;73.88;100597.00;126355;1099;104195;-78
2021/08/04 00:49:58;;;;;;;17.50;7.20;;;;;;;19.37;74.04;100594.34;126248;1099;104261;-80
2021/08/04 00:52:29;;;;;;;17.57;7.03;;;;;;;19.37;74.01;100597.01;125371;1099;104149;-79
2021/08/04 00:55:00;;;;;;;16.50;7.13;;;;;;;19.31;73.83;100589.89;126346;1099;104299;-79
2021/08/04 00:57:32;;;;;;;18.63;8.13;;;;;;;19.25;73.51;100591.67;126318;1099;104229;-80
2021/08/04 01:00:05;;;;;;;15.47;7.23;;;;;;;19.18;73.78;100588.09;126358;1099;104149;-79
2021/08/04 01:02:44;;;;;;;17.40;7.20;;;;;;;19.16;74.17;100600.50;126297;1099;104248;-79
2021/08/04 01:05:22;;;;;;;13.83;7.00;;;;;;;19.11;73.57;100588.98;125375;1099;104175;-79
2021/08/04 01:08:01;;;;;;;15.70;7.43;;;;;;;19.08;73.70;100603.14;126317;1099;104229;-80
2021/08/04 01:10:38;;;;;;;16.17;7.17;;;;;;;19.04;73.74;100593.37;126313;1099;104146;-78
2021/08/04 01:13:14;;;;;;;15.30;7.93;;;;;;;19.01;74.09;100615.55;126314;1099;109402;-80
2021/08/04 01:15:51;;;;;;;15.07;7.53;;;;;;;18.96;74.15;100606.64;126357;1099;104251;-79
2021/08/04 01:18:30;;;;;;;16.43;7.47;;;;;;;18.96;74.37;100601.33;126339;1098;104150;-79
2021/08/04 01:21:01;;;;;;;15.30;7.70;;;;;;;18.97;74.31;100599.58;126271;1099;104146;-79
2021/08/04 01:23:40;;;;;;;16.70;7.70;;;;;;;18.96;74.21;100603.11;126349;1099;104146;-80
2021/08/04 01:26:27;;;;;;;15.37;7.20;;;;;;;18.99;74.18;100598.68;126343;1099;104169;-79
2021/08/04 01:29:00;;;;;;;13.47;6.83;;;;;;;19.09;74.40;100604.02;126360;1099;104251;-78
2021/08/04 01:31:36;;;;;;;18.20;7.50;;;;;;;19.04;74.12;100599.60;126274;1099;104179;-79
2021/08/04 01:34:08;;;;;;;16.77;7.63;;;;;;;18.97;75.02;100603.11;126310;1099;104182;-79
2021/08/04 01:36:40;;;;;;;15.03;7.33;;;;;;;18.91;74.98;100600.44;126362;1099;104168;-79
2021/08/04 01:39:14;;;;;;;18.17;7.90;;;;;;;18.88;75.04;100605.74;126326;1099;104155;-80
2021/08/04 01:41:46;;;;;;;13.55;7.15;;;;;;;18.85;74.62;100608.39;126294;1099;104165;-79
2021/08/04 01:44:19;;;;;;;19.57;7.93;;;;;;;18.85;74.51;100605.73;125424;1099;104249;-78
2021/08/04 01:46:51;;;;;;;16.40;7.47;;;;;;;18.84;74.89;100604.86;126313;1099;104307;-80
2021/08/04 01:49:23;;;;;;;16.73;7.60;;;;;;;18.85;74.79;100597.76;126331;1099;104172;-79
2021/08/04 01:51:54;;;;;;;17.70;7.40;;;;;;;18.80;75.05;100596.83;126299;1099;105543;-79
2021/08/04 01:54:27;;;;;;;18.57;7.77;;;;;;;18.75;75.17;100599.47;126358;1099;104172;-79
2021/08/04 01:56:58;;;;;;;15.23;7.03;;;;;;;18.72;75.38;100590.61;126276;1098;104426;-79
2021/08/04 01:59:29;;;;;;;15.77;6.73;;;;;;;18.68;75.23;100592.34;126311;1099;104142;-79
2021/08/04 02:02:17;;;;;;;14.70;7.40;;;;;;;18.66;75.26;100584.36;126261;1099;104153;-79
2021/08/04 02:04:51;;;;;;;15.23;6.97;;;;;;;18.63;75.27;100591.45;125535;1098;104248;-79
2021/08/04 02:07:36;;;;;;;14.40;7.50;;;;;;;18.62;75.51;100587.91;126361;1099;105285;-81
2021/08/04 02:10:13;;;;;;;16.47;7.90;;;;;;;18.65;75.29;100590.58;126330;1099;104146;-79
2021/08/04 02:12:51;;;;;;;17.07;7.47;;;;;;;18.69;75.71;100594.13;125331;1099;104453;-78
2021/08/04 02:15:23;;;;;;;15.27;6.53;;;;;;;18.73;75.31;100593.27;125394;1099;104252;-80
2021/08/04 02:18:04;;;;;;;18.80;9.05;;;;;;;18.73;75.50;100610.97;126335;1099;104142;-78
2021/08/04 02:20:38;;;;;;;18.57;7.43;;;;;;;18.69;75.56;100616.27;126345;1099;104647;-79
2021/08/04 02:23:14;;;;;;;16.00;7.23;;;;;;;18.63;75.75;100618.91;126292;1099;104216;-79
2021/08/04 02:25:49;;;;;;;18.80;7.30;;;;;;;18.63;75.81;100624.22;126298;1099;104319;-78
2021/08/04 02:28:24;;;;;;;16.20;8.03;;;;;;;18.64;76.12;100617.16;126361;1099;104229;-78
2021/08/04 02:30:57;;;;;;;14.90;7.20;;;;;;;18.68;76.04;100613.61;126294;1099;104184;-78
2021/08/04 02:33:29;;;;;;;20.32;7.40;;;;;;;18.68;76.11;100618.92;126251;1099;104146;-79
2021/08/04 02:36:01;;;;;;;15.37;7.40;;;;;;;18.68;76.08;100619.83;126264;1099;104201;-78
2021/08/04 02:38:32;;;;;;;18.03;7.60;;;;;;;18.73;76.33;100629.58;126303;1099;104309;-79
2021/08/04 02:41:05;;;;;;;17.23;7.30;;;;;;;18.78;76.33;100626.06;126250;1099;104214;-78
2021/08/04 02:43:36;;;;;;;12.90;6.90;;;;;;;18.82;76.57;100627.87;126281;1099;104166;-78
2021/08/04 02:46:08;;;;;;;16.60;7.70;;;;;;;18.88;76.25;100631.45;126360;1099;104149;-78
2021/08/04 02:48:39;;;;;;;17.73;7.13;;;;;;;18.88;76.21;100634.11;126305;1099;104320;-79
2021/08/04 02:51:14;;;;;;;14.17;7.43;;;;;;;18.87;76.46;100630.58;126298;1099;104146;-79
2021/08/04 02:53:45;;;;;;;15.00;7.00;;;;;;;18.85;76.29;100629.66;126306;1099;104178;-79
2021/08/04 02:56:16;;;;;;;15.70;7.37;;;;;;;18.84;76.23;100628.78;126316;1099;104156;-79
2021/08/04 02:58:47;;;;;;;14.87;7.00;;;;;;;18.82;76.13;100630.52;126326;1099;104161;-79
2021/08/04 03:01:20;;;;;;;17.30;7.73;;;;;;;18.82;76.08;100634.93;126357;1099;104223;-79
2021/08/04 03:03:50;;;;;;;19.47;7.67;;;;;;;18.81;76.47;100638.50;125354;1099;104271;-78
2021/08/04 03:06:22;;;;;;;15.77;7.23;;;;;;;18.82;76.72;100637.59;126339;1098;104156;-79
2021/08/04 03:08:53;;;;;;;16.27;7.20;;;;;;;18.82;76.15;100637.59;126355;1099;104210;-78
2021/08/04 03:11:26;;;;;;;15.70;7.40;;;;;;;18.82;76.61;100633.19;126330;1099;104195;-79
2021/08/04 03:13:57;;;;;;;15.77;7.13;;;;;;;18.84;76.39;100633.19;126276;1099;104169;-79
2021/08/04 03:16:30;;;;;;;13.37;7.17;;;;;;;18.86;76.08;100639.42;126310;1099;104144;-80
2021/08/04 03:19:00;;;;;;;17.43;7.27;;;;;;;18.84;76.13;100646.48;126305;1099;104219;-78
2021/08/04 03:21:33;;;;;;;16.20;7.10;;;;;;;18.82;76.58;100648.22;126308;1099;104169;-80
2021/08/04 03:24:04;;;;;;;15.47;7.27;;;;;;;18.79;76.60;100650.87;125374;1099;105435;-78
2021/08/04 03:26:36;;;;;;;14.67;7.17;;;;;;;18.76;76.41;100646.45;126348;1099;104169;-79
2021/08/04 03:29:07;;;;;;;17.03;6.80;;;;;;;18.76;76.73;100643.79;126274;1099;104283;-80
2021/08/04 03:31:38;;;;;;;17.47;6.90;;;;;;;18.78;76.73;100643.80;126339;1099;104602;-78
2021/08/04 03:34:10;;;;;;;17.80;7.67;;;;;;;18.79;76.90;100642.89;126274;1099;104201;-78
2021/08/04 03:36:40;;;;;;;15.03;7.27;;;;;;;18.82;76.65;100643.81;126378;1099;104178;-79
2021/08/04 03:39:12;;;;;;;14.50;7.30;;;;;;;18.88;76.75;100658.04;126365;1099;104201;-80
2021/08/04 03:41:43;;;;;;;19.53;6.97;;;;;;;18.92;77.18;100654.52;126372;1099;104235;-80
2021/08/04 03:44:15;;;;;;;14.87;7.07;;;;;;;19.01;76.70;100650.12;125422;1099;104200;-80
2021/08/04 03:46:47;;;;;;;11.33;6.67;;;;;;;19.07;76.76;100659.87;126295;1099;104340;-81
2021/08/04 03:49:19;;;;;;;15.23;7.50;;;;;;;19.09;77.10;100655.47;126330;1099;104143;-80
2021/08/04 03:51:51;;;;;;;19.13;7.77;;;;;;;19.16;77.18;100659.02;126353;1099;104337;-79
2021/08/04 03:54:23;;;;;;;15.73;7.27;;;;;;;19.25;76.86;100656.39;126249;1099;104284;-79
2021/08/04 03:56:56;;;;;;;17.43;7.23;;;;;;;19.31;76.75;100658.19;125423;1099;104691;-80
2021/08/04 03:59:27;;;;;;;17.57;7.43;;;;;;;19.35;77.22;100665.27;126327;1099;104136;-80
2021/08/04 04:01:58;;;;;;;17.50;7.00;;;;;;;19.37;77.35;100677.70;126315;1099;104140;-77
2021/08/04 04:04:30;;;;;;;16.77;7.07;;;;;;;19.35;76.58;100675.91;126248;1099;104146;-79
2021/08/04 04:07:04;;;;;;;16.17;7.17;;;;;;;19.30;77.02;100667.92;126311;1099;104146;-80
2021/08/04 04:09:37;;;;;;;19.37;6.90;;;;;;;19.29;77.36;100671.48;125349;1102;104139;-79
2021/08/04 04:12:10;;;;;;;14.37;7.03;;;;;;;19.32;77.15;100665.27;126326;1099;104239;-79
2021/08/04 04:14:42;;;;;;;23.30;7.55;;;;;;;19.30;76.88;100675.02;126281;1099;104153;-78
2021/08/04 04:17:13;;;;;;;21.53;7.63;;;;;;;19.28;76.95;100669.70;126348;1098;104189;-78
2021/08/04 04:19:44;;;;;;;23.17;8.13;;;;;;;19.26;76.93;100674.14;126249;1099;104143;-78
2021/08/04 04:22:15;;;;;;;25.63;8.90;;;;;;;19.29;77.42;100678.55;126254;1098;104120;-78
2021/08/04 04:24:48;;;;;;;21.57;7.87;;;;;;;19.25;77.35;100682.99;126298;1099;104245;-78
2021/08/04 04:27:19;;;;;;;14.60;7.13;;;;;;;19.24;77.24;100678.54;126310;1099;104185;-77
2021/08/04 04:29:50;;;;;;;16.13;7.47;;;;;;;19.28;76.98;100669.70;126330;1099;104341;-78
2021/08/04 04:32:21;;;;;;;15.80;7.10;;;;;;;19.33;77.63;100681.23;126256;1099;104336;-78
2021/08/04 04:34:53;;;;;;;16.73;7.83;;;;;;;19.46;77.19;100678.60;126275;1099;104252;-76
2021/08/04 04:37:24;;;;;;;18.77;7.23;;;;;;;19.55;77.18;100674.17;126282;1099;104152;-76
2021/08/04 04:39:55;;;;;;;16.60;7.13;;;;;;;19.66;77.47;100671.52;126359;1099;104156;-78
2021/08/04 04:42:26;;;;;;;20.70;8.50;;;;;;;19.71;77.57;100675.11;126328;1099;104190;-76
2021/08/04 04:44:58;;;;;;;19.83;7.77;;;;;;;19.77;77.37;100673.36;126273;1099;104169;-78
2021/08/04 04:47:29;;;;;;;22.23;7.53;;;;;;;19.79;76.30;100669.82;126268;1099;104329;-77
2021/08/04 04:50:00;;;;;;;14.70;7.03;;;;;;;19.87;76.67;100670.70;126337;1099;104178;-78
2021/08/04 04:52:31;;;;;;;14.70;7.43;;;;;;;19.96;76.90;100664.50;126375;1098;104149;-75
2021/08/04 04:55:05;;;;;;;19.67;7.93;;;;;;;20.08;77.12;100667.13;126348;1099;104227;-77
2021/08/04 04:57:37;;;;;;;21.07;7.83;;;;;;;20.26;76.48;100668.90;126285;1099;107009;-78
2021/08/04 05:00:12;;;;;;;20.73;7.13;;;;;;;20.42;76.80;100669.75;126372;1099;104159;-78
2021/08/04 05:02:50;;;;;;;22.47;7.90;;;;;;;20.56;76.95;100669.72;126333;1099;104264;-76
2021/08/04 05:05:21;;;;;;;19.40;7.50;;;;;;;20.64;77.03;100670.61;126192;1099;104245;-76
2021/08/04 05:07:54;;;;;;;20.87;8.07;;;;;;;20.75;77.21;100675.91;126307;1099;118911;-76
2021/08/04 05:10:26;;;;;;;16.93;7.70;;;;;;;20.85;76.68;100678.55;126317;1099;104236;-76
2021/08/04 05:12:59;;;;;;;16.50;7.70;;;;;;;20.92;76.87;100670.52;126347;1099;104213;-76
2021/08/04 05:15:35;;;;;;;17.93;7.67;;;;;;;20.98;76.13;100669.61;126237;1099;104146;-77
2021/08/04 05:18:07;;;;;;;17.90;7.87;;;;;;;21.07;76.49;100676.70;126293;1099;104290;-76
2021/08/04 05:20:38;;;;;;;22.47;8.03;;;;;;;21.16;76.25;100668.62;125412;1099;104271;-75
2021/08/04 05:23:11;;;;;;;16.12;8.13;;;;;;;21.25;75.87;100667.70;126232;1099;104232;-75
2021/08/04 05:25:42;;;;;;;20.07;8.50;;;;;;;21.31;76.14;100673.00;125328;1099;104165;-75
2021/08/04 05:28:17;;;;;;;18.35;8.25;;;;;;;21.38;76.12;100669.41;126279;1098;104158;-77
2021/08/04 05:30:55;;;;;;;21.70;8.30;;;;;;;21.49;75.70;100661.37;126265;1098;104576;-75
2021/08/04 05:33:30;;;;;;;25.67;9.90;;;;;;;21.59;75.29;100676.41;126270;1099;104233;-77
2021/08/04 05:36:05;;;;;;;22.13;9.73;;;;;;;21.74;75.89;100675.42;126102;1099;104268;-76
2021/08/04 05:38:39;;;;;;;24.47;9.30;;;;;;;21.96;75.97;100688.61;125277;1099;104168;-76
2021/08/04 05:41:11;;;;;;;22.98;9.50;;;;;;;22.19;75.34;100686.62;125285;1099;104210;-77
2021/08/04 05:43:45;;;;;;;23.80;10.38;;;;;;;22.39;75.34;100688.23;126204;1099;104168;-77
2021/08/04 05:46:19;;;;;;;20.10;10.10;;;;;;;22.49;75.06;100694.39;126119;1099;104239;-76
2021/08/04 05:48:51;;;;;;;20.17;10.03;;;;;;;22.59;74.79;100691.61;126142;1099;108139;-76
2021/08/04 05:51:26;;;;;;;20.83;9.07;;;;;;;22.67;74.14;100695.97;126291;1099;104268;-75
2021/08/04 05:54:00;;;;;;;20.10;9.70;;;;;;;22.71;74.43;100695.91;126221;1099;104195;-76
2021/08/04 05:56:35;;;;;;;15.97;9.03;;;;;;;22.72;73.91;100699.47;126126;1099;104184;-76
2021/08/04 05:59:09;;;;;;;14.13;8.43;;;;;;;22.69;73.30;100699.50;126027;1099;116891;-77
2021/08/04 06:01:43;;;;;;;19.67;9.53;;;;;;;22.73;73.56;100688.75;126093;1099;104379;-77
2021/08/04 06:04:21;;;;;;;20.20;9.28;;;;;;;22.80;72.86;100684.23;126022;1099;104127;-77
2021/08/04 06:06:52;;;;;;;21.00;9.90;;;;;;;22.89;72.69;100667.17;126020;1099;105418;-76
2021/08/04 06:09:23;;;;;;;21.93;9.67;;;;;;;22.96;72.17;100661.72;126117;1099;104613;-77
2021/08/04 06:11:55;;;;;;;22.53;10.77;;;;;;;23.01;72.42;100658.98;126178;1098;104248;-77
2021/08/04 06:14:30;;;;;;;21.67;10.13;;;;;;;23.06;71.96;100667.86;126082;1099;104168;-78
2021/08/04 06:17:04;;;;;;;19.73;9.10;;;;;;;23.19;72.03;100665.02;126215;1099;104146;-78
2021/08/04 06:19:39;;;;;;;22.17;9.78;;;;;;;23.32;71.27;100664.83;125253;1099;111668;-77
2021/08/04 06:22:10;;;;;;;18.90;8.95;;;;;;;23.46;71.32;100661.95;126169;1099;104210;-78
2021/08/04 06:24:44;;;;;;;24.47;9.10;;;;;;;23.60;70.99;100660.87;126180;1099;104762;-79
2021/08/04 06:27:15;;;;;;;22.40;9.53;;;;;;;23.76;70.53;100664.18;126110;1099;104142;-79
2021/08/04 06:29:50;;;;;;;21.27;8.53;;;;;;;23.84;70.10;100656.92;126163;1099;104178;-77
2021/08/04 06:32:29;;;;;;;16.87;8.00;;;;;;;23.82;69.37;100654.23;125305;1099;104264;-77
2021/08/04 06:35:03;;;;;;;17.93;7.60;;;;;;;23.85;69.30;100645.31;126070;1099;104165;-77
2021/08/04 06:37:35;;;;;;;17.30;7.67;;;;;;;23.85;68.38;100645.31;126181;1099;104146;-78
2021/08/04 06:40:10;;;;;;;15.97;7.80;;;;;;;23.86;68.77;100642.61;126144;1099;108128;-79
2021/08/04 06:42:43;;;;;;;13.83;7.13;;;;;;;23.93;68.51;100646.05;126322;1099;104143;-79
2021/08/04 06:45:18;;;;;;;16.60;7.20;;;;;;;24.01;68.39;100622.70;126254;1099;104143;-79
2021/08/04 06:47:51;;;;;;;12.43;7.30;;;;;;;24.14;68.34;100628.72;126118;1097;104207;-76
2021/08/04 06:50:26;;;;;;;16.57;7.40;;;;;;;24.35;67.82;100631.91;126163;1099;117782;-77
2021/08/04 06:52:58;;;;;;;19.55;7.40;;;;;;;24.56;67.81;100638.66;126140;1099;104165;-77
2021/08/04 06:55:31;;;;;;;15.30;6.87;;;;;;;24.73;67.38;100630.31;125273;1099;104636;-78
2021/08/04 06:58:24;;;;;;;16.23;6.93;;;;;;;24.83;67.07;100625.62;125988;1099;104309;-76
2021/08/04 07:01:01;;;;;;;14.50;7.13;;;;;;;24.90;67.01;100621.87;125240;1100;104172;-77
2021/08/04 07:03:45;;;;;;;15.40;6.73;;;;;;;24.86;66.18;100621.06;126001;1099;104535;-78
2021/08/04 07:06:17;;;;;;;12.35;6.25;;;;;;;24.78;66.41;100622.12;125867;1099;104114;-78
2021/08/04 07:09:06;;;;;;;14.77;6.00;;;;;;;24.68;66.17;100622.35;125273;1099;105373;-79
2021/08/04 07:12:01;;;;;;;11.90;5.90;;;;;;;24.52;66.12;100636.94;126121;1099;104284;-80
2021/08/04 07:14:36;;;;;;;12.87;5.53;;;;;;;24.39;66.20;100641.67;125255;1099;104223;-78
2021/08/04 07:17:42;;;;;;;14.00;5.63;;;;;;;24.23;66.29;100639.28;125455;1099;104185;-78
2021/08/04 07:20:25;;;;;;;16.45;5.87;;;;;;;24.08;65.83;100652.08;125159;1099;104198;-82
2021/08/04 07:23:01;;;;;;;13.38;6.25;;;;;;;23.95;65.86;100657.66;125326;1099;104303;-79
2021/08/04 07:25:38;;;;;;;12.67;5.80;;;;;;;23.89;65.88;100673.84;125305;1099;104239;-78
2021/08/04 07:28:11;;;;;;;11.30;5.50;;;;;;;23.82;65.92;100672.13;126126;1099;104178;-79
2021/08/04 07:30:43;;;;;;;12.90;5.87;;;;;;;23.80;65.90;100690.03;126001;1098;104367;-78
2021/08/04 07:33:16;;;;;;;12.63;6.00;;;;;;;23.74;66.10;100687.44;126212;1098;104152;-77
2021/08/04 07:35:49;;;;;;;9.83;5.83;;;;;;;23.65;65.92;100684.01;126317;1099;104232;-78
2021/08/04 07:38:23;;;;;;;15.70;6.80;;;;;;;23.58;66.40;100689.48;126269;1099;104204;-77
2021/08/04 07:41:00;;;;;;;10.87;5.00;;;;;;;23.54;66.02;100688.62;125637;1099;104370;-80
2021/08/04 07:43:34;;;;;;;12.27;6.10;;;;;;;23.51;66.09;100699.38;125383;1102;104281;-78
2021/08/04 07:46:21;;;;;;;13.40;5.83;;;;;;;23.47;66.04;100694.99;126229;1099;104156;-80
2021/08/04 07:48:56;;;;;;;15.33;6.30;;;;;;;23.44;66.49;100705.75;125402;1099;104274;-79
2021/08/04 07:51:32;;;;;;;15.60;6.80;;;;;;;23.40;66.67;100704.88;125355;1099;104261;-79
2021/08/04 07:54:07;;;;;;;12.97;6.93;;;;;;;23.36;66.79;100712.98;126175;1099;104166;-79
2021/08/04 07:56:44;;;;;;;18.25;8.05;;;;;;;23.23;67.00;100714.95;125343;1097;104217;-77
2021/08/04 07:59:17;;;;;;;17.37;8.23;;;;;;;23.05;67.08;100716.05;125387;1099;104306;-76
2021/08/04 08:01:50;;;;;;;21.00;8.40;;;;;;;22.87;67.63;100714.47;125382;1099;104198;-75
2021/08/04 08:04:22;;;;;;;21.60;8.87;;;;;;;22.67;67.88;100714.69;126070;1099;104165;-77
2021/08/04 08:06:54;;;;;;;21.30;8.40;;;;;;;22.50;68.28;100728.23;125299;1099;104203;-77
2021/08/04 08:09:26;;;;;;;15.10;7.25;;;;;;;22.35;69.05;100735.50;126151;1099;104150;-76
2021/08/04 08:12:00;;;;;;;19.13;7.57;;;;;;;22.18;69.39;100754.32;125320;1099;104161;-76
2021/08/04 08:14:39;;;;;;;16.93;7.43;;;;;;;21.94;70.15;100744.73;126142;1099;104165;-77
2021/08/04 08:17:13;;;;;;;17.90;7.70;;;;;;;21.76;70.86;100718.14;125416;1099;104147;-78
2021/08/04 08:19:46;;;;;;;18.15;7.03;;;;;;;21.62;70.06;100719.11;125402;1099;104194;-77
2021/08/04 08:22:18;;;;;;;20.70;8.37;;;;;;;21.55;70.83;100706.72;126233;1099;104133;-78
2021/08/04 08:24:50;;;;;;;17.43;7.33;;;;;;;21.53;70.76;100701.38;126204;1099;104371;-77
2021/08/04 08:27:22;;;;;;;18.23;7.80;;;;;;;21.50;71.23;100674.70;126292;1099;104140;-78
2021/08/04 08:29:57;;;;;;;17.97;7.90;;;;;;;21.53;71.46;100673.78;126182;1099;104611;-77
2021/08/04 08:32:29;;;;;;;19.63;8.20;;;;;;;21.63;72.09;100690.61;125229;1099;104281;-77
2021/08/04 08:35:03;;;;;;;16.87;8.43;;;;;;;21.72;72.19;100712.83;125252;1099;104268;-78
2021/08/04 08:37:35;;;;;;;;;;;;;;;21.78;72.74;100711.87;126256;1099;104140;-78
2021/08/04 08:40:11;;;;;;;19.75;8.55;;;;;;;21.85;71.97;100697.59;125451;1099;104169;-77
2021/08/04 08:42:46;;;;;;;15.43;8.10;;;;;;;21.93;72.54;100697.53;126214;1099;104169;-77
2021/08/04 08:45:20;;;;;;;18.03;8.73;;;;;;;22.06;72.97;100696.54;126294;1099;104239;-78
2021/08/04 08:47:55;;;;;;;13.83;7.47;;;;;;;22.21;73.13;100692.83;126281;1099;104266;-77
2021/08/04 08:50:29;;;;;;;18.13;8.40;;;;;;;22.42;73.17;100686.44;125262;1099;104162;-77
2021/08/04 08:53:01;;;;;;;18.57;8.53;;;;;;;22.68;73.03;100690.59;125337;1102;104324;-78
2021/08/04 08:55:36;;;;;;;20.00;8.53;;;;;;;22.85;72.89;100690.41;125128;1102;104294;-79
2021/08/04 08:58:12;;;;;;;15.77;8.30;;;;;;;22.90;73.33;100696.58;125225;1102;104201;-77
2021/08/04 09:00:44;;;;;;;20.07;9.00;;;;;;;22.87;73.32;100690.39;125185;1102;104338;-77
2021/08/04 09:03:20;;;;;;;15.50;7.90;;;;;;;22.93;73.00;100688.52;125146;1102;109048;-78
2021/08/04 09:05:56;;;;;;;16.10;8.47;;;;;;;23.06;73.28;100694.63;125218;1102;104146;-78
2021/08/04 09:08:37;;;;;;;20.77;8.80;;;;;;;23.21;73.31;100690.87;125217;1102;104173;-78
2021/08/04 09:11:15;;;;;;;13.47;7.80;;;;;;;23.57;73.77;100696.61;125208;1102;104226;-79
2021/08/04 09:13:51;;;;;;;15.47;7.50;;;;;;;23.72;73.78;100694.59;125246;1102;118061;-78
2021/08/04 09:16:39;;;;;;;13.47;6.90;;;;;;;23.69;73.62;100679.48;125180;1102;104404;-79
2021/08/04 09:19:24;;;;;;;12.27;5.63;;;;;;;23.63;73.09;100675.09;125212;1102;104152;-78
2021/08/04 09:22:09;;;;;;;9.53;5.50;;;;;;;23.70;73.25;100678.58;125158;1099;104262;-77
2021/08/04 09:25:08;;;;;;;11.27;5.80;;;;;;;23.80;73.47;100681.98;125692;1099;104398;-79
2021/08/04 09:27:46;;;;;;;11.27;5.63;;;;;;;23.73;73.43;100681.17;126262;1099;104176;-77
2021/08/04 09:30:25;;;;;;;12.37;6.60;;;;;;;23.60;73.33;100688.53;126184;1099;104159;-77
2021/08/04 09:33:14;;;;;;;13.43;6.17;;;;;;;23.43;73.38;100690.58;126039;1099;104175;-77
2021/08/04 09:35:48;;;;;;;12.43;5.93;;;;;;;23.24;73.31;100672.09;126200;1098;104248;-77
2021/08/04 09:38:25;;;;;;;11.13;6.20;;;;;;;23.19;73.46;100663.25;126159;1099;104179;-79
2021/08/04 09:41:15;;;;;;;11.83;5.93;;;;;;;23.30;73.57;100657.75;125273;1099;104317;-77
2021/08/04 09:43:50;;;;;;;13.53;6.30;;;;;;;23.48;73.71;100651.22;125326;1102;104191;-77
2021/08/04 09:46:27;;;;;;;11.50;5.53;;;;;;;23.74;73.53;100652.62;126103;1099;104294;-76
2021/08/04 09:49:13;;;;;;;13.07;5.90;;;;;;;23.89;73.34;100633.64;126005;1099;104306;-77
2021/08/04 09:52:03;;;;;;;11.63;6.10;;;;;;;24.05;73.60;100637.80;126183;1099;104239;-78
2021/08/04 09:54:43;;;;;;;13.63;6.10;;;;;;;24.21;73.09;100626.80;126245;1099;118856;-78
2021/08/04 09:57:16;;;;;;;12.20;5.80;;;;;;;24.44;73.47;100620.13;125275;1099;104352;-77
2021/08/04 10:00:08;;;;;;;13.03;5.63;;;;;;;24.51;72.81;100613.70;125354;1099;104178;-78
2021/08/04 10:02:44;;;;;;;12.75;5.75;;;;;;;24.40;71.71;100609.46;125270;1102;104156;-80
2021/08/04 10:05:29;;;;;;;12.43;6.00;;;;;;;24.39;71.63;100610.36;126126;1099;104139;-78
2021/08/04 10:08:11;;;;;;;11.10;5.77;;;;;;;24.43;71.18;100610.30;126105;1099;104272;-78
2021/08/04 10:10:50;;;;;;;14.10;6.30;;;;;;;24.43;71.12;100621.03;125313;1099;104811;-79
2021/08/04 10:13:31;;;;;;;10.60;5.30;;;;;;;24.41;70.72;100621.06;125114;1099;104192;-79
2021/08/04 10:16:05;;;;;;;11.77;5.40;;;;;;;24.39;71.05;100623.77;125210;1102;104179;-79
2021/08/04 10:18:41;;;;;;;10.33;5.20;;;;;;;24.43;70.75;100623.71;125182;1102;104670;-79
2021/08/04 10:21:13;;;;;;;12.40;5.47;;;;;;;24.53;70.82;100614.58;125210;1102;104229;-80
2021/08/04 10:23:49;;;;;;;11.27;5.83;;;;;;;24.58;70.00;100616.27;125209;1102;104755;-78
2021/08/04 10:26:23;;;;;;;11.87;6.20;;;;;;;24.53;69.68;100610.09;125184;1099;104143;-79
2021/08/04 10:28:57;;;;;;;14.70;5.90;;;;;;;24.60;69.12;100605.51;125166;1099;104443;-78
2021/08/04 10:31:29;;;;;;;11.10;5.58;;;;;;;24.51;68.85;100597.61;125136;1100;104194;-78
2021/08/04 10:34:04;;;;;;;8.83;5.40;;;;;;;24.37;68.44;100600.57;125189;1102;104146;-79
2021/08/04 10:36:41;;;;;;;15.23;5.40;;;;;;;24.38;68.95;100591.62;125116;1102;104499;-80
2021/08/04 10:39:24;;;;;;;11.67;5.53;;;;;;;24.49;69.18;100588.73;125242;1102;104176;-80
2021/08/04 10:42:09;;;;;;;9.10;5.63;;;;;;;24.53;69.47;100579.71;125165;1102;104203;-80
2021/08/04 10:44:46;;;;;;;13.87;5.50;;;;;;;24.68;69.02;100574.06;125373;1099;104229;-79
2021/08/04 10:47:29;;;;;;;11.20;5.57;;;;;;;24.82;68.57;100576.41;126078;1099;104169;-79
2021/08/04 10:50:15;;;;;;;9.77;5.63;;;;;;;24.93;68.67;100570.80;126067;1099;104206;-79
2021/08/04 10:53:09;;;;;;;11.57;5.60;;;;;;;25.11;68.85;100570.39;126032;1099;104300;-79
2021/08/04 10:55:58;;;;;;;14.27;5.73;;;;;;;25.26;68.05;100565.59;126038;1099;104155;-78
2021/08/04 10:58:32;;;;;;;10.73;5.40;;;;;;;25.39;68.16;100566.20;125357;1099;104226;-81
2021/08/04 11:01:28;;;;;;;7.73;5.13;;;;;;;25.48;67.26;100569.54;125268;1099;104162;-78
2021/08/04 11:04:04;;;;;;;8.47;5.63;;;;;;;25.54;66.93;100571.20;125332;1099;104168;-76
2021/08/04 11:07:01;;;;;;;11.67;5.57;;;;;;;25.59;66.04;100560.34;126002;1099;104136;-78
2021/08/04 11:09:45;;;;;;;9.03;5.13;;;;;;;25.73;65.69;100559.98;125394;1099;104233;-77
2021/08/04 11:12:20;;;;;;;9.10;5.10;;;;;;;25.81;65.00;100556.16;126079;1099;104200;-76
2021/08/04 11:14:56;;;;;;;7.33;5.07;;;;;;;25.89;65.39;100555.95;125366;1099;104208;-76
2021/08/04 11:17:30;;;;;;;9.97;4.90;;;;;;;25.96;65.26;100557.56;126193;1099;104500;-77
2021/08/04 11:20:17;;;;;;;10.10;4.77;;;;;;;26.04;65.13;100556.48;126162;1099;104159;-78
2021/08/04 11:22:54;;;;;;;8.93;4.97;;;;;;;26.08;64.92;100547.41;126094;1098;104217;-77
2021/08/04 11:25:41;;;;;;;9.20;5.27;;;;;;;25.94;63.26;100553.14;126108;1099;104532;-77
2021/08/04 11:28:44;;;;;;;9.43;5.37;;;;;;;26.05;63.76;100542.99;125317;1099;104140;-76
2021/08/04 11:31:19;;;;;;;8.00;5.10;;;;;;;26.07;63.98;100553.70;126191;1099;104140;-75
2021/08/04 11:33:57;;;;;;;10.47;5.37;;;;;;;26.07;62.12;100537.58;125359;1099;104137;-79
2021/08/04 11:36:31;;;;;;;12.83;5.13;;;;;;;26.28;63.19;100530.72;126015;1099;104197;-78
2021/08/04 11:39:08;;;;;;;8.88;5.20;;;;;;;26.42;63.02;100533.01;126036;1099;104271;-78